createdAt,value
2023-07-21T00:02:54.522Z,12.69
2023-07-21T00:05:59.596Z,12.66
2023-07-21T00:09:10.382Z,12.62
2023-07-21T00:12:21.192Z,12.60
2023-07-21T00:15:31.942Z,12.56
2023-07-21T00:18:43.808Z,12.52
2023-07-21T00:21:57.203Z,12.49
2023-07-21T00:25:12.135Z,12.46
2023-07-21T00:28:24.311Z,12.43
2023-07-21T00:31:35.156Z,12.42
2023-07-21T00:34:45.921Z,12.40
2023-07-21T00:37:57.958Z,12.37
2023-07-21T00:41:10.144Z,12.34
2023-07-21T00:44:24.686Z,12.32
2023-07-21T00:47:35.424Z,12.29
2023-07-21T00:50:46.691Z,12.25
2023-07-21T00:53:59.461Z,12.24
2023-07-21T00:57:10.296Z,12.21
2023-07-21T01:00:21.034Z,12.17
2023-07-21T01:03:33.986Z,12.15
2023-07-21T01:06:46.303Z,12.11
2023-07-21T01:09:57.660Z,12.08
2023-07-21T01:13:10.617Z,12.04
2023-07-21T01:16:21.440Z,12.02
2023-07-21T01:19:32.235Z,11.97
2023-07-21T01:22:38.012Z,11.94
2023-07-21T01:25:48.833Z,11.92
2023-07-21T01:28:52.262Z,11.88
2023-07-21T01:32:20.765Z,11.85
2023-07-21T01:35:31.548Z,11.83
2023-07-21T01:38:42.411Z,11.83
2023-07-21T01:41:54.353Z,11.81
2023-07-21T01:45:05.515Z,11.79
2023-07-21T01:48:16.278Z,11.76
2023-07-21T01:51:35.513Z,11.73
2023-07-21T01:54:42.274Z,11.70
2023-07-21T01:57:53.643Z,11.68
2023-07-21T02:01:04.388Z,11.68
2023-07-21T02:04:16.133Z,11.70
2023-07-21T02:07:28.850Z,11.70
2023-07-21T02:10:51.153Z,11.71
2023-07-21T02:14:04.477Z,11.72
2023-07-21T02:17:21.192Z,11.75
2023-07-21T02:20:40.722Z,11.76
2023-07-21T02:23:54.458Z,11.76
2023-07-21T02:27:07.243Z,11.79
2023-07-21T02:30:18.016Z,11.81
2023-07-21T02:33:30.768Z,11.82
2023-07-21T02:36:42.890Z,11.85
2023-07-21T02:39:55.675Z,11.84
2023-07-21T02:43:06.404Z,11.85
2023-07-21T02:46:26.074Z,11.83
2023-07-21T02:49:38.368Z,11.83
2023-07-21T02:52:40.568Z,11.82
2023-07-21T02:55:52.592Z,11.82
2023-07-21T02:59:03.935Z,11.81
2023-07-21T03:02:18.698Z,11.79
2023-07-21T03:05:30.534Z,11.79
2023-07-21T03:08:42.252Z,11.80
2023-07-21T03:11:54.659Z,11.83
2023-07-21T03:15:05.554Z,11.87
2023-07-21T03:18:17.303Z,11.88
2023-07-21T03:21:28.602Z,11.91
2023-07-21T03:24:39.648Z,11.93
2023-07-21T03:27:53.487Z,11.97
2023-07-21T03:31:12.647Z,12.01
2023-07-21T03:34:16.906Z,12.06
2023-07-21T03:37:20.898Z,12.09
2023-07-21T03:40:32.854Z,12.13
2023-07-21T03:43:44.743Z,12.17
2023-07-21T03:46:55.517Z,12.22
2023-07-21T03:50:24.078Z,12.29
2023-07-21T03:53:38.062Z,12.37
2023-07-21T03:57:00.183Z,12.46
2023-07-21T04:00:21.324Z,12.54
2023-07-21T04:03:32.576Z,12.59
2023-07-21T04:06:43.461Z,12.67
2023-07-21T04:10:11.005Z,12.76
2023-07-21T04:13:22.944Z,12.85
2023-07-21T04:16:37.703Z,12.96
2023-07-21T04:19:49.602Z,13.07
2023-07-21T04:23:01.409Z,13.17
2023-07-21T04:26:12.642Z,13.30
2023-07-21T04:29:35.129Z,13.42
2023-07-21T04:32:50.473Z,13.53
2023-07-21T04:36:01.271Z,13.62
2023-07-21T04:39:12.243Z,13.69
2023-07-21T04:42:22.974Z,13.76
2023-07-21T04:45:34.799Z,13.82
2023-07-21T04:48:47.582Z,13.91
2023-07-21T04:51:58.370Z,14.03
2023-07-21T04:55:09.246Z,14.15
2023-07-21T04:58:20.180Z,14.30
2023-07-21T05:01:47.669Z,14.49
2023-07-21T05:05:00.762Z,14.87
2023-07-21T05:08:13.691Z,15.43
2023-07-21T05:11:25.496Z,15.94
2023-07-21T05:14:36.876Z,16.34
2023-07-21T05:17:48.949Z,16.73
2023-07-21T05:21:01.717Z,17.18
2023-07-21T05:24:14.407Z,17.59
2023-07-21T05:27:25.160Z,17.93
2023-07-21T05:30:44.226Z,18.19
2023-07-21T05:33:55.294Z,18.38
2023-07-21T05:37:06.069Z,18.51
2023-07-21T05:40:18.818Z,18.61
2023-07-21T05:43:32.334Z,18.66
2023-07-21T05:46:43.109Z,18.68
2023-07-21T05:49:56.594Z,18.76
2023-07-21T05:53:10.326Z,18.84
2023-07-21T05:56:25.887Z,19.03
2023-07-21T05:59:38.185Z,19.16
2023-07-21T06:02:50.758Z,19.20
2023-07-21T06:06:03.686Z,19.22
2023-07-21T06:09:23.948Z,19.36
2023-07-21T06:12:36.783Z,19.53
2023-07-21T06:15:48.640Z,19.79
2023-07-21T06:19:12.440Z,20.09
2023-07-21T06:22:24.851Z,20.36
2023-07-21T06:25:45.588Z,20.67
2023-07-21T06:29:05.838Z,21.18
2023-07-21T06:32:33.353Z,21.72
2023-07-21T06:35:45.407Z,22.63
2023-07-21T06:38:57.195Z,23.80
2023-07-21T06:42:09.035Z,25.28
2023-07-21T06:45:21.626Z,26.88
2023-07-21T06:48:24.360Z,28.31
2023-07-21T06:51:35.510Z,28.15
2023-07-21T06:54:57.680Z,27.30
2023-07-21T06:58:10.479Z,26.43
2023-07-21T07:01:22.277Z,25.71
2023-07-21T07:04:33.233Z,25.17
2023-07-21T07:07:45.060Z,24.73
2023-07-21T07:10:58.349Z,24.36
2023-07-21T07:14:10.431Z,24.00
2023-07-21T07:17:21.211Z,23.68
2023-07-21T07:20:42.517Z,23.54
2023-07-21T07:23:55.556Z,23.44
2023-07-21T07:27:07.924Z,23.33
2023-07-21T07:30:20.713Z,23.22
2023-07-21T07:33:42.811Z,23.07
2023-07-21T07:36:55.843Z,23.02
2023-07-21T07:40:07.846Z,23.04
2023-07-21T07:43:29.667Z,23.11
2023-07-21T07:46:38.068Z,23.21
2023-07-21T07:50:08.789Z,23.27
2023-07-21T07:53:20.165Z,23.25
2023-07-21T07:56:31.944Z,23.26
2023-07-21T07:59:37.304Z,23.25
2023-07-21T08:02:50.098Z,23.27
2023-07-21T08:06:02.298Z,23.29
2023-07-21T08:09:23.373Z,23.28
2023-07-21T08:12:38.842Z,23.29
2023-07-21T08:15:49.724Z,23.43
2023-07-21T08:19:08.933Z,23.49
2023-07-21T08:22:21.897Z,23.56
2023-07-21T08:25:34.092Z,23.69
2023-07-21T08:28:47.492Z,23.75
2023-07-21T08:31:58.283Z,23.80
2023-07-21T08:35:17.439Z,23.93
2023-07-21T08:38:28.187Z,24.05
2023-07-21T08:41:45.742Z,24.11
2023-07-21T08:44:57.491Z,24.11
2023-07-21T08:48:09.177Z,24.18
2023-07-21T08:51:30.730Z,24.28
2023-07-21T08:54:44.098Z,24.33
2023-07-21T08:57:48.841Z,24.38
2023-07-21T09:00:52.119Z,24.42
2023-07-21T09:04:08.748Z,24.47
2023-07-21T09:07:21.616Z,24.56
2023-07-21T09:10:34.860Z,24.73
2023-07-21T09:13:59.188Z,24.79
2023-07-21T09:17:10.009Z,24.84
2023-07-21T09:20:24.169Z,24.98
2023-07-21T09:23:35.920Z,25.10
2023-07-21T09:26:48.627Z,25.23
2023-07-21T09:30:02.611Z,25.50
2023-07-21T09:33:13.464Z,25.72
2023-07-21T09:36:25.893Z,25.92
2023-07-21T09:39:39.890Z,26.11
2023-07-21T09:42:52.674Z,26.18
2023-07-21T09:49:38.678Z,26.11
2023-07-21T09:52:51.538Z,26.13
2023-07-21T09:56:02.294Z,26.17
2023-07-21T09:59:15.170Z,26.22
2023-07-21T10:02:29.287Z,26.30
2023-07-21T10:05:40.413Z,26.36
2023-07-21T10:08:51.139Z,26.27
2023-07-21T10:12:02.991Z,26.23
2023-07-21T10:15:22.853Z,26.21
2023-07-21T10:18:20.600Z,26.19
2023-07-21T10:21:23.790Z,26.23
2023-07-21T10:24:52.225Z,26.11
2023-07-21T10:28:06.802Z,26.00
2023-07-21T10:32:03.230Z,26.09
2023-07-21T10:35:21.241Z,26.32
2023-07-21T10:38:56.832Z,26.51
2023-07-21T10:42:09.457Z,26.69
2023-07-21T10:45:20.246Z,26.84
2023-07-21T10:48:44.385Z,26.79
2023-07-21T10:51:56.202Z,26.65
2023-07-21T10:55:09.650Z,26.55
2023-07-21T10:58:27.333Z,26.50
2023-07-21T11:01:38.117Z,26.55
2023-07-21T11:04:49.779Z,26.61
2023-07-21T11:08:06.262Z,26.69
2023-07-21T11:11:17.177Z,26.63
2023-07-21T11:14:28.609Z,26.50
2023-07-21T11:17:17.934Z,26.33
2023-07-21T11:20:31.381Z,26.23
2023-07-21T11:23:42.165Z,26.24
2023-07-21T11:32:15.928Z,26.42
2023-07-21T11:35:29.271Z,26.17
2023-07-21T11:38:49.159Z,25.93
2023-07-21T11:41:59.549Z,25.77
2023-07-21T11:45:10.585Z,25.56
2023-07-21T11:48:22.200Z,25.30
2023-07-21T11:51:35.003Z,25.09
2023-07-21T11:54:49.789Z,24.93
2023-07-21T11:58:01.319Z,24.85
2023-07-21T12:01:12.739Z,24.78
2023-07-21T12:04:40.535Z,24.76
2023-07-21T12:08:08.069Z,24.76
2023-07-21T12:11:20.193Z,24.80
2023-07-21T12:14:31.775Z,24.70
2023-07-21T12:17:43.832Z,24.59
2023-07-21T12:21:04.383Z,24.49
2023-07-21T12:24:15.876Z,24.41
2023-07-21T12:27:27.816Z,24.42
2023-07-21T12:30:55.732Z,24.44
2023-07-21T12:34:06.994Z,24.45
2023-07-21T12:37:28.165Z,24.39
2023-07-21T12:40:32.564Z,24.36
2023-07-21T12:47:17.713Z,24.35
2023-07-21T12:50:29.955Z,24.33
2023-07-21T12:53:41.683Z,24.31
2023-07-21T12:56:53.534Z,24.32
2023-07-21T13:00:21.091Z,24.34
2023-07-21T13:03:33.257Z,24.42
2023-07-21T13:06:44.685Z,24.51
2023-07-21T13:09:57.898Z,24.55
2023-07-21T13:13:10.387Z,24.62
2023-07-21T13:16:29.993Z,24.56
2023-07-21T13:19:49.761Z,24.54
2023-07-21T13:23:20.573Z,24.48
2023-07-21T13:26:28.858Z,24.40
2023-07-21T13:29:41.386Z,24.42
2023-07-21T13:32:52.310Z,24.38
2023-07-21T13:35:57.294Z,24.33
2023-07-21T13:39:09.004Z,24.30
2023-07-21T13:42:28.613Z,24.24
2023-07-21T13:45:56.175Z,24.14
2023-07-21T13:48:59.282Z,24.06
2023-07-21T13:52:11.443Z,24.01
2023-07-21T13:55:23.902Z,24.06
2023-07-21T13:58:43.883Z,24.17
2023-07-21T14:02:03.316Z,24.25
2023-07-21T14:05:14.429Z,24.29
2023-07-21T14:08:33.959Z,24.27
2023-07-21T14:11:45.149Z,24.27
2023-07-21T14:14:58.016Z,24.25
2023-07-21T14:18:10.590Z,24.26
2023-07-21T14:21:23.957Z,24.25
2023-07-21T14:24:37.310Z,24.22
2023-07-21T14:27:48.393Z,24.16
2023-07-21T14:31:00.536Z,24.15
2023-07-21T14:34:11.375Z,24.16
2023-07-21T14:37:22.471Z,24.18
2023-07-21T14:40:33.554Z,24.14
2023-07-21T14:43:44.589Z,24.11
2023-07-21T14:46:57.392Z,24.08
2023-07-21T14:50:17.089Z,24.09
2023-07-21T14:53:36.889Z,24.08
2023-07-21T14:56:54.385Z,24.09
2023-07-21T15:00:05.284Z,24.05
2023-07-21T15:03:24.496Z,24.10
2023-07-21T15:06:35.574Z,24.12
2023-07-21T15:09:46.316Z,24.09
2023-07-21T15:12:57.176Z,24.09
2023-07-21T15:16:07.980Z,24.04
2023-07-21T15:19:20.349Z,24.00
2023-07-21T15:22:39.561Z,23.98
2023-07-21T15:25:50.828Z,23.96
2023-07-21T15:29:03.398Z,23.97
2023-07-21T15:32:15.161Z,23.96
2023-07-21T15:35:28.195Z,23.91
2023-07-21T15:38:39.828Z,23.93
2023-07-21T15:41:50.617Z,23.97
2023-07-21T15:45:01.427Z,23.93
2023-07-21T15:48:12.492Z,23.79
2023-07-21T15:51:41.189Z,23.64
2023-07-21T15:54:53.525Z,23.54
2023-07-21T15:58:04.302Z,23.44
2023-07-21T16:01:24.492Z,23.35
2023-07-21T16:04:37.060Z,23.26
2023-07-21T16:07:49.338Z,23.19
2023-07-21T16:11:00.240Z,23.12
2023-07-21T16:14:12.027Z,23.07
2023-07-21T16:17:25.454Z,22.99
2023-07-21T16:20:36.347Z,22.89
2023-07-21T16:23:47.598Z,22.81
2023-07-21T16:26:58.362Z,22.76
2023-07-21T16:30:17.574Z,22.68
2023-07-21T16:33:29.905Z,22.62
2023-07-21T16:36:41.747Z,22.59
2023-07-21T16:39:53.663Z,22.55
2023-07-21T16:43:05.433Z,22.56
2023-07-21T16:46:16.356Z,22.57
2023-07-21T16:49:27.170Z,22.58
2023-07-21T16:52:47.465Z,22.57
2023-07-21T16:55:58.329Z,22.56
2023-07-21T16:59:09.648Z,22.53
2023-07-21T17:02:13.177Z,22.50
2023-07-21T17:05:40.921Z,22.46
2023-07-21T17:09:00.113Z,22.42
2023-07-21T17:12:12.668Z,22.38
2023-07-21T17:15:25.237Z,22.32
2023-07-21T17:18:46.138Z,22.24
2023-07-21T17:21:58.840Z,22.17
2023-07-21T17:25:16.679Z,22.11
2023-07-21T17:28:28.170Z,22.00
2023-07-21T17:31:40.369Z,21.91
2023-07-21T17:34:52.002Z,21.86
2023-07-21T17:38:13.174Z,21.80
2023-07-21T17:41:24.461Z,21.76
2023-07-21T17:44:35.460Z,21.76
2023-07-21T17:47:55.751Z,21.73
2023-07-21T17:51:14.894Z,21.69
2023-07-21T17:54:35.036Z,21.65
2023-07-21T17:57:48.683Z,21.59
2023-07-21T18:01:09.224Z,21.51
2023-07-21T18:04:20.005Z,21.43
2023-07-21T18:07:33.081Z,21.37
2023-07-21T18:10:46.713Z,21.29
2023-07-21T18:13:58.757Z,21.21
2023-07-21T18:17:26.438Z,21.11
2023-07-21T18:20:38.387Z,21.02
2023-07-21T18:23:49.866Z,20.98
2023-07-21T18:27:01.241Z,20.90
2023-07-21T18:30:28.801Z,20.81
2023-07-21T18:33:41.869Z,20.71
2023-07-21T18:37:03.802Z,20.58
2023-07-21T18:40:23.208Z,20.46
2023-07-21T18:43:42.350Z,20.34
2023-07-21T18:46:41.175Z,20.25
2023-07-21T18:49:52.293Z,20.18
2023-07-21T18:53:03.253Z,20.07
2023-07-21T18:56:22.668Z,19.97
2023-07-21T18:59:34.067Z,19.90
2023-07-21T19:02:46.100Z,19.84
2023-07-21T19:06:06.254Z,19.78
2023-07-21T19:09:12.347Z,19.69
2023-07-21T19:12:30.747Z,19.61
2023-07-21T19:15:44.508Z,19.55
2023-07-21T19:18:56.168Z,19.52
2023-07-21T19:22:07.581Z,19.49
2023-07-21T19:25:26.936Z,19.44
2023-07-21T19:28:31.102Z,19.33
2023-07-21T19:31:43.548Z,19.23
2023-07-21T19:34:54.734Z,19.11
2023-07-21T19:38:21.235Z,18.98
2023-07-21T19:41:32.056Z,18.85
2023-07-21T19:44:52.375Z,18.71
2023-07-21T19:48:18.917Z,18.57
2023-07-21T19:51:29.684Z,18.46
2023-07-21T19:54:49.493Z,18.37
2023-07-21T19:57:54.671Z,18.26
2023-07-21T20:01:06.730Z,18.19
2023-07-21T20:04:18.980Z,18.12
2023-07-21T20:07:38.242Z,18.03
2023-07-21T20:10:49.414Z,17.95
2023-07-21T20:14:00.783Z,17.85
2023-07-21T20:17:12.815Z,17.75
2023-07-21T20:20:32.978Z,17.68
2023-07-21T20:23:52.170Z,17.59
2023-07-21T20:27:03.948Z,17.51
2023-07-21T20:30:24.104Z,17.44
2023-07-21T20:33:36.940Z,17.36
2023-07-21T20:36:48.291Z,17.32
2023-07-21T20:40:07.561Z,17.26
2023-07-21T20:43:06.321Z,17.21
2023-07-21T20:46:26.027Z,17.16
2023-07-21T20:49:37.309Z,17.12
2023-07-21T20:52:48.370Z,17.09
2023-07-21T20:56:08.131Z,17.07
2023-07-21T20:59:35.561Z,17.05
2023-07-21T21:03:00.633Z,17.00
2023-07-21T21:06:20.073Z,16.96
2023-07-21T21:09:19.896Z,16.92
2023-07-21T21:12:33.509Z,16.89
2023-07-21T21:15:45.260Z,16.86
2023-07-21T21:19:04.939Z,16.81
2023-07-21T21:22:17.161Z,16.78
2023-07-21T21:25:38.456Z,16.77
2023-07-21T21:28:49.396Z,16.75
2023-07-21T21:32:00.984Z,16.73
2023-07-21T21:35:13.318Z,16.73
2023-07-21T21:38:24.494Z,16.72
2023-07-21T21:41:55.012Z,16.70
2023-07-21T21:45:15.216Z,16.67
2023-07-21T21:48:28.819Z,16.66
2023-07-21T21:51:40.187Z,16.66
2023-07-21T21:54:51.908Z,16.66
2023-07-21T21:58:05.084Z,16.66
2023-07-21T22:01:18.276Z,16.66
2023-07-21T22:04:32.240Z,16.65
2023-07-21T22:07:46.578Z,16.65
2023-07-21T22:11:06.381Z,16.64
2023-07-21T22:14:18.282Z,16.64
2023-07-21T22:17:45.751Z,16.64
2023-07-21T22:20:59.172Z,16.66
2023-07-21T22:24:26.830Z,16.66
2023-07-21T22:27:40.899Z,16.69
2023-07-21T22:30:54.569Z,16.77
2023-07-21T22:34:15.167Z,16.87
2023-07-21T22:37:26.318Z,16.98
2023-07-21T22:40:38.640Z,17.08
2023-07-21T22:43:57.948Z,17.17
2023-07-21T22:47:11.683Z,17.25
2023-07-21T22:50:26.041Z,17.33
2023-07-21T22:53:36.021Z,17.39
2023-07-21T22:56:48.913Z,17.44
2023-07-21T23:00:01.287Z,17.48
2023-07-21T23:03:12.067Z,17.51
2023-07-21T23:06:31.436Z,17.52
2023-07-21T23:09:30.178Z,17.53
2023-07-21T23:12:41.301Z,17.55
2023-07-21T23:15:52.367Z,17.55
2023-07-21T23:19:04.437Z,17.58
2023-07-21T23:22:15.242Z,17.60
2023-07-21T23:25:34.463Z,17.61
2023-07-21T23:28:45.769Z,17.63
2023-07-21T23:31:59.221Z,17.64
2023-07-21T23:35:10.350Z,17.64
2023-07-21T23:38:21.736Z,17.64
2023-07-21T23:41:41.840Z,17.63
2023-07-21T23:44:55.245Z,17.63
2023-07-21T23:48:06.082Z,17.64
2023-07-21T23:51:19.279Z,17.64
2023-07-21T23:54:38.366Z,17.65
2023-07-21T23:57:57.628Z,17.64
